Olympic Valley, CA (96146)

7:13 AM PST on January 24, 2017 (GMT -0800)
MRHBAM | | Change Station
Active Advisory: Hydrologic Statement

Elev 6947 ft 39.16 °N, 120.24 °W | Updated 20 seconds ago

Overcast
Overcast
15.0 °F
Feels Like 15 °F
N
1.0
Wind Variable Wind from South
Gusts 3.0 mph

Today
High -- | Low -- °F
--% Chance of Precip.
Yesterday
High -- | Low -- °F
Precip. -- in
Pressure 29.88 in
Visibility 10.0 miles
Clouds Overcast 2700 ft
Windchill 15 °F
Dew Point 13 °F
Humidity 91%
Rainfall 0.01 in
Snow Depth Not available.
7:13 AM 5:12 PM
Waning Crescent, 11% visible
METAR KTRK 241445Z 00000KT 10SM OVC027 M10/M11 A2988 RMK NOSPECI FIRST 70012 4046 24HR MAX 0000 MIN 1117
Pressure 29.88 in
Visibility 10.0 miles
Clouds Overcast 2700 ft
Windchill 15 °F
Dew Point 13 °F
Humidity 91%
Rainfall 0.01 in
Snow Depth Not available.
7:13 AM 5:12 PM
Waning Crescent, 11% visible
METAR KTRK 241445Z 00000KT 10SM OVC027 M10/M11 A2988 RMK NOSPECI FIRST 70012 4046 24HR MAX 0000 MIN 1117

Get Your Daily Forecast Email!

Thanks for signing up!

Be on the lookout for a verification email in your inbox.

You'll start receiving the daily forecast at 8 AM.

×

10-Day Weather Forecast

Almanac

Astronomy

Jan. 24, 2017 Rise Set
Actual Time
Civil Twilight
Nautical Twilight
Astronomical Twilight
Moon
Length of Visible Light
Length of Day
Tomorrow will be .
, % of the Moon is Illuminated

Today's Extremes

State Highs State Lows

Community

WunderPhotos

Upload Photos

1,962,540 photos uploaded!

WunderBlog® & News

Nearby

Air Quality

  Air Quality AQ Index Pollutant
Not available.

Snow Depth

Station Depth Elevation

Earthquake Activity

City Distance Mag. Time & Date
Minimum magnitude displayed is 2.5.

Coastal Water Temperatures

Place Temperature

Stations

Nearby Weather Stations

Station Location Temp. Windchill Dew Point Humidity Wind Precip. Elev Updated Type
                   

Watches & Warnings

Hydrologic Statement
Issued: 3:14 PM PST Jan. 23, 2017 – National Weather Service

Forecast information for
Bear River above Wheatland.
* At 2:45 PM Monday the stage was 8.4 feet.
* Forecast to recede to near 7.0 ft tomorrow afternoon then forecast
to fluctuate near 7.0 ft thru tomorrow afternoon.
* Flood stage 24.0 ft
* monitor stage 16.0 ft


&&

Lat... Lon 3899 12158 3903 12142 3897 12133 3882 12161